Time;durP1;ratioP1;P1;durP2;ratioP2;P2;SDS_P1;SDS_P2;PMS_P1;PMS_P2;Temp;Humidity;BMP_temperature;BMP_pressure;BME280_temperature;BME280_humidity;BME280_pressure;Samples;Min_cycle;Max_cycle;Signal;HPM_P1;HPM_P2
2023/03/12 00:01:56;;;;;;;8.10;4.45;;;;;;;0.29;69.94;95866.94;5054615;28;20412;-75
2023/03/12 00:04:22;;;;;;;8.05;4.53;;;;;;;0.36;70.10;95862.09;5052117;28;20497;-75
2023/03/12 00:06:50;;;;;;;9.88;4.70;;;;;;;0.40;70.32;95863.19;5052615;28;20373;-77
2023/03/12 00:09:18;;;;;;;9.35;5.10;;;;;;;0.43;70.43;95865.34;5051864;28;20045;-74
2023/03/12 00:11:44;;;;;;;10.98;5.97;;;;;;;0.45;70.69;95865.88;5043484;28;20052;-74
2023/03/12 00:14:11;;;;;;;11.45;6.30;;;;;;;0.43;70.12;95862.69;5031733;28;20052;-74
2023/03/12 00:16:44;;;;;;;9.82;5.63;;;;;;;0.44;69.98;95864.28;5032524;28;20052;-75
2023/03/12 00:19:12;;;;;;;9.43;5.35;;;;;;;0.37;69.90;95858.38;5032048;28;20046;-74
2023/03/12 00:21:39;;;;;;;10.77;5.03;;;;;;;0.23;70.58;95844.69;5032476;28;20072;-76
2023/03/12 00:24:08;;;;;;;9.00;5.40;;;;;;;0.17;71.17;95854.59;5022873;28;20049;-77
2023/03/12 00:26:36;;;;;;;7.80;4.72;;;;;;;0.14;71.19;95857.78;5047107;28;20053;-75
2023/03/12 00:29:02;;;;;;;11.85;5.35;;;;;;;0.12;70.94;95861.81;5032059;28;20137;-74
2023/03/12 00:31:31;;;;;;;9.60;4.95;;;;;;;0.23;70.80;95858.88;5061266;28;20048;-74
2023/03/12 00:34:02;;;;;;;9.52;5.40;;;;;;;0.31;70.71;95859.41;5072253;28;20048;-75
2023/03/12 00:36:31;;;;;;;10.32;5.05;;;;;;;0.33;70.94;95857.31;5037638;28;20528;-75
2023/03/12 00:38:59;;;;;;;10.85;5.90;;;;;;;0.42;70.86;95861.06;5031958;28;20096;-73
2023/03/12 00:41:29;;;;;;;10.43;5.68;;;;;;;0.40;71.47;95853.28;5031295;28;20061;-73
2023/03/12 00:43:55;;;;;;;12.07;6.47;;;;;;;0.40;71.66;95852.47;5032374;28;20056;-75
2023/03/12 00:46:22;;;;;;;12.50;5.63;;;;;;;0.40;71.60;95852.47;5031438;28;20416;-74
2023/03/12 00:48:49;;;;;;;11.38;5.43;;;;;;;0.38;71.55;95860.78;5031685;28;20052;-76
2023/03/12 00:51:16;;;;;;;9.50;5.43;;;;;;;0.46;71.48;95862.13;5031096;28;20048;-75
2023/03/12 00:53:42;;;;;;;10.20;4.93;;;;;;;0.49;71.28;95862.41;5031720;28;20119;-75
2023/03/12 00:56:09;;;;;;;8.93;4.93;;;;;;;0.49;71.15;95866.97;5031476;28;20437;-73
2023/03/12 00:58:37;;;;;;;9.43;4.75;;;;;;;0.51;70.86;95864.81;5032374;28;20056;-74
2023/03/12 01:01:04;;;;;;;10.77;4.95;;;;;;;0.55;70.71;95860.53;5054553;28;20049;-73
2023/03/12 01:03:31;;;;;;;8.90;5.03;;;;;;;0.50;70.80;95864.03;5071964;28;20040;-73
2023/03/12 01:05:57;;;;;;;7.03;5.03;;;;;;;0.52;70.86;95861.06;5071396;28;20446;-75
2023/03/12 01:08:24;;;;;;;8.48;4.97;;;;;;;0.48;71.32;95865.38;5070987;28;20574;-75
2023/03/12 01:10:51;;;;;;;10.35;5.63;;;;;;;0.41;71.25;95854.09;5061958;28;20044;-74
2023/03/12 01:13:18;;;;;;;11.57;5.07;;;;;;;0.29;71.41;95857.03;5031276;28;20091;-78
2023/03/12 01:15:46;;;;;;;9.30;5.30;;;;;;;0.24;71.19;95865.84;5031896;28;20102;-75
2023/03/12 01:18:12;;;;;;;8.70;5.15;;;;;;;0.16;71.20;95866.38;5030874;28;20045;-74
2023/03/12 01:20:39;;;;;;;9.35;5.10;;;;;;;0.17;71.27;95869.84;5031539;28;20505;-73
2023/03/12 01:23:06;;;;;;;10.07;4.95;;;;;;;0.25;71.49;95872.00;5036796;28;20048;-75
2023/03/12 01:25:33;;;;;;;10.25;5.45;;;;;;;0.30;71.36;95869.34;5051274;28;20088;-74
2023/03/12 01:28:00;;;;;;;11.82;5.65;;;;;;;0.35;72.04;95868.53;5051276;28;20400;-73
2023/03/12 01:30:27;;;;;;;8.98;4.82;;;;;;;0.38;72.42;95876.88;5057394;28;20078;-74
2023/03/12 01:32:55;;;;;;;13.32;4.88;;;;;;;0.36;72.67;95873.63;5070912;28;20049;-75
2023/03/12 01:35:21;;;;;;;9.75;5.10;;;;;;;0.33;71.44;95878.72;5062103;28;20056;-74
2023/03/12 01:37:48;;;;;;;9.45;4.43;;;;;;;0.36;71.53;95878.97;5050821;28;20048;-75
2023/03/12 01:40:15;;;;;;;11.23;5.10;;;;;;;0.27;71.26;95882.47;5050690;28;20060;-74
2023/03/12 01:42:42;;;;;;;11.82;4.72;;;;;;;0.21;71.40;95877.09;5045349;28;20698;-74
2023/03/12 01:45:42;;;;;;;8.75;4.45;;;;;;;0.22;71.59;95867.19;5050125;28;20516;-73
2023/03/12 01:48:10;;;;;;;9.57;4.90;;;;;;;0.15;71.31;95862.06;5049968;28;20045;-74
2023/03/12 01:50:36;;;;;;;8.50;4.95;;;;;;;0.14;70.99;95865.81;5050290;28;20052;-74
2023/03/12 01:53:03;;;;;;;8.70;4.43;;;;;;;0.07;70.40;95865.28;5050060;28;20051;-75
2023/03/12 01:55:30;;;;;;;8.80;4.20;;;;;;;0.01;70.84;95866.31;5050689;28;20046;-75
2023/03/12 01:57:58;;;;;;;7.88;4.55;;;;;;;-0.03;70.98;95859.88;5050366;28;20415;-77
2023/03/12 02:00:27;;;;;;;8.00;4.43;;;;;;;-0.16;71.47;95857.69;5055300;28;20407;-75
2023/03/12 02:02:58;;;;;;;8.48;4.00;;;;;;;-0.21;72.13;95863.00;5061473;28;20041;-74
2023/03/12 02:05:32;;;;;;;7.63;4.13;;;;;;;-0.20;72.46;95862.78;5050084;28;20045;-74
2023/03/12 02:07:58;;;;;;;7.03;4.15;;;;;;;-0.24;72.77;95863.56;5050328;28;20048;-73
2023/03/12 02:10:26;;;;;;;10.18;4.72;;;;;;;-0.23;72.58;95859.81;5049899;28;20446;-73
2023/03/12 02:12:52;;;;;;;9.38;4.15;;;;;;;-0.25;73.05;95865.44;5049868;28;20091;-73
2023/03/12 02:15:19;;;;;;;10.00;4.47;;;;;;;-0.29;73.36;95862.47;5050163;28;20041;-73
2023/03/12 02:17:46;;;;;;;7.63;4.88;;;;;;;-0.31;73.67;95869.94;5050871;28;20049;-73
2023/03/12 02:20:18;;;;;;;9.75;4.68;;;;;;;-0.30;74.26;95868.88;5050598;28;20048;-73
2023/03/12 02:22:51;;;;;;;7.13;4.70;;;;;;;-0.32;74.25;95871.00;5052056;28;20079;-78
2023/03/12 02:25:30;;;;;;;10.75;4.35;;;;;;;-0.35;74.13;95866.19;5052976;28;20045;-73
2023/03/12 02:27:59;;;;;;;6.80;4.28;;;;;;;-0.38;74.13;95874.72;5053623;28;20059;-75
2023/03/12 02:30:29;;;;;;;6.07;3.75;;;;;;;-0.38;73.97;95874.72;5057969;28;20689;-73
2023/03/12 02:32:58;;;;;;;6.15;3.92;;;;;;;-0.41;74.21;95880.59;5056663;28;20072;-73
2023/03/12 02:35:24;;;;;;;7.45;4.10;;;;;;;-0.44;74.00;95886.47;5040294;28;20049;-74
2023/03/12 02:37:53;;;;;;;7.60;4.03;;;;;;;-0.43;73.82;95882.72;5039549;28;20041;-76
2023/03/12 02:40:24;;;;;;;6.25;3.67;;;;;;;-0.46;73.61;95882.44;5038967;28;20413;-73
2023/03/12 02:42:53;;;;;;;6.75;3.97;;;;;;;-0.59;73.82;95891.72;5043399;28;20044;-74
2023/03/12 02:45:20;;;;;;;9.32;4.07;;;;;;;-0.66;74.02;95888.47;5042327;28;20385;-74
2023/03/12 02:47:46;;;;;;;7.20;4.00;;;;;;;-0.70;74.33;95884.69;5031855;28;20060;-74
2023/03/12 02:50:13;;;;;;;8.45;3.92;;;;;;;-0.71;74.50;95891.13;5030881;28;20520;-73
2023/03/12 02:52:40;;;;;;;6.78;4.10;;;;;;;-0.79;74.79;95887.84;5030092;28;20053;-73
2023/03/12 02:55:07;;;;;;;7.72;3.80;;;;;;;-0.80;74.80;95882.75;5029423;28;20045;-73
2023/03/12 02:57:36;;;;;;;10.02;4.20;;;;;;;-0.76;74.96;95896.44;5030149;28;20060;-73
2023/03/12 03:00:05;;;;;;;7.95;3.70;;;;;;;-0.75;74.77;95895.34;5035450;28;20044;-74
2023/03/12 03:02:32;;;;;;;8.90;4.10;;;;;;;-0.84;75.10;95887.81;5069723;28;20044;-73
2023/03/12 03:04:59;;;;;;;5.38;3.80;;;;;;;-0.83;75.18;95896.66;5069698;28;20389;-74
2023/03/12 03:07:25;;;;;;;6.53;3.67;;;;;;;-0.82;75.44;95896.41;5069085;28;20049;-74
2023/03/12 03:09:51;;;;;;;7.60;3.80;;;;;;;-0.86;75.08;95900.63;5069474;28;20055;-73
2023/03/12 03:12:18;;;;;;;9.05;4.00;;;;;;;-1.03;75.07;95897.31;5049893;28;20052;-74
2023/03/12 03:14:44;;;;;;;7.85;3.83;;;;;;;-1.23;76.25;95899.81;5049723;28;20045;-74
2023/03/12 03:17:12;;;;;;;6.20;4.13;;;;;;;-1.15;75.87;95907.34;5049376;28;20044;-74
2023/03/12 03:19:39;;;;;;;7.00;3.85;;;;;;;-1.15;76.30;95892.16;5049740;28;20045;-74
2023/03/12 03:22:05;;;;;;;9.18;3.83;;;;;;;-1.07;76.26;95906.88;5049153;28;20656;-73
2023/03/12 03:24:32;;;;;;;5.47;3.63;;;;;;;-1.05;76.34;95905.56;5049055;28;20053;-73
2023/03/12 03:26:58;;;;;;;6.28;3.95;;;;;;;-1.14;76.79;95903.63;5049360;28;20049;-73
2023/03/12 03:29:24;;;;;;;7.18;3.60;;;;;;;-0.97;76.25;95898.97;5048727;28;20052;-73
2023/03/12 03:31:51;;;;;;;6.38;3.35;;;;;;;-0.91;75.87;95905.94;5054703;28;20045;-73
2023/03/12 03:34:19;;;;;;;6.65;3.30;;;;;;;-0.83;75.62;95905.47;5049083;28;20052;-75
2023/03/12 03:36:45;;;;;;;6.82;3.70;;;;;;;-0.75;75.35;95906.06;5049507;28;20059;-73
2023/03/12 03:39:12;;;;;;;5.40;3.30;;;;;;;-0.68;74.85;95912.81;5048965;28;20045;-73
2023/03/12 03:41:38;;;;;;;7.13;3.70;;;;;;;-0.67;74.58;95911.75;5049130;28;20048;-73
2023/03/12 03:44:06;;;;;;;5.80;2.90;;;;;;;-0.59;74.26;95905.88;5044719;28;20119;-73
2023/03/12 03:46:34;;;;;;;6.43;3.30;;;;;;;-0.53;74.43;95909.41;5049455;28;20087;-73
2023/03/12 03:49:00;;;;;;;6.38;2.90;;;;;;;-0.65;74.03;95908.78;5050354;28;20130;-73
2023/03/12 03:51:28;;;;;;;7.20;3.05;;;;;;;-0.63;73.86;95910.13;5049735;28;20044;-74
2023/03/12 03:53:55;;;;;;;5.05;2.85;;;;;;;-0.68;73.48;95911.97;5045664;28;20042;-73
2023/03/12 03:56:21;;;;;;;6.07;3.08;;;;;;;-0.60;73.31;95919.53;5029651;28;20041;-74
2023/03/12 03:58:48;;;;;;;6.43;3.08;;;;;;;-0.62;73.17;95919.00;5030377;28;20076;-73
2023/03/12 04:01:14;;;;;;;5.28;2.63;;;;;;;-0.68;73.02;95923.50;5055763;28;20044;-75
2023/03/12 04:03:41;;;;;;;7.03;2.47;;;;;;;-0.70;73.28;95920.25;5053195;28;20068;-73
2023/03/12 04:06:08;;;;;;;6.15;3.00;;;;;;;-0.66;73.13;95920.56;5045407;28;20117;-74
2023/03/12 04:08:37;;;;;;;5.68;2.65;;;;;;;-0.69;73.56;95919.19;5033579;28;20046;-73
2023/03/12 04:11:07;;;;;;;5.40;2.55;;;;;;;-0.52;72.61;95916.38;5032362;28;20041;-75
2023/03/12 04:13:34;;;;;;;4.60;3.00;;;;;;;-0.43;72.65;95916.69;5032789;28;20053;-75
2023/03/12 04:16:00;;;;;;;4.22;2.63;;;;;;;-0.40;72.62;95914.31;5032488;28;20052;-73
2023/03/12 04:18:27;;;;;;;5.03;2.42;;;;;;;-0.34;72.40;95918.63;5038041;28;20060;-73
2023/03/12 04:20:53;;;;;;;5.18;2.50;;;;;;;-0.32;72.26;95916.47;5052553;28;20037;-73
2023/03/12 04:23:20;;;;;;;5.70;2.50;;;;;;;-0.32;71.42;95921.81;5052224;28;20045;-74
2023/03/12 04:25:47;;;;;;;6.47;3.00;;;;;;;-0.33;71.52;95930.91;5052453;28;20055;-73
2023/03/12 04:28:14;;;;;;;3.97;2.47;;;;;;;-0.46;71.57;95934.06;5052095;28;20057;-73
2023/03/12 04:30:40;;;;;;;4.85;2.55;;;;;;;-0.43;71.83;95927.38;5059687;28;20047;-73
2023/03/12 04:33:07;;;;;;;4.53;2.50;;;;;;;-0.41;72.12;95922.59;5071744;28;20458;-74
2023/03/12 04:35:34;;;;;;;4.43;2.47;;;;;;;-0.43;71.99;95930.84;5035298;28;20046;-74
2023/03/12 04:38:02;;;;;;;5.25;2.00;;;;;;;-0.41;72.08;95928.75;5032533;28;20053;-75
2023/03/12 04:40:28;;;;;;;4.75;2.50;;;;;;;-0.43;71.63;95930.84;5032297;28;20064;-74
2023/03/12 04:42:56;;;;;;;4.55;2.40;;;;;;;-0.44;71.64;95923.09;5044488;28;20049;-73
2023/03/12 04:45:23;;;;;;;5.32;2.70;;;;;;;-0.42;71.67;95926.31;5051784;28;20056;-73
2023/03/12 04:47:49;;;;;;;5.00;2.30;;;;;;;-0.49;71.95;95925.75;5051967;28;20052;-73
2023/03/12 04:50:16;;;;;;;6.50;2.70;;;;;;;-0.48;72.06;95933.50;5042197;28;20076;-73
2023/03/12 04:52:42;;;;;;;6.35;2.50;;;;;;;-0.44;71.81;95937.28;5032151;28;20050;-73
2023/03/12 04:55:09;;;;;;;5.25;2.70;;;;;;;-0.45;71.66;95937.53;5047461;28;20397;-74
2023/03/12 04:57:35;;;;;;;6.68;2.70;;;;;;;-0.44;71.83;95939.94;5051915;28;20052;-73
2023/03/12 05:00:08;;;;;;;5.20;2.75;;;;;;;-0.47;72.21;95936.97;5054718;28;20051;-74
2023/03/12 05:02:36;;;;;;;6.60;2.80;;;;;;;-0.45;72.48;95930.31;5071875;28;20132;-73
2023/03/12 05:05:03;;;;;;;5.05;2.95;;;;;;;-0.46;72.38;95930.59;5070184;28;20055;-73
2023/03/12 05:07:29;;;;;;;4.65;2.65;;;;;;;-0.49;72.56;95929.22;5031673;28;20516;-73
2023/03/12 05:09:56;;;;;;;4.53;2.80;;;;;;;-0.49;73.02;95921.19;5031959;28;20057;-72
2023/03/12 05:12:22;;;;;;;4.60;2.42;;;;;;;-0.45;73.05;95916.94;5031507;28;20052;-76
2023/03/12 05:14:49;;;;;;;3.97;2.30;;;;;;;-0.44;73.32;95918.56;5032402;28;20045;-73
2023/03/12 05:17:17;;;;;;;4.05;2.53;;;;;;;-0.48;73.54;95914.78;5033026;28;20049;-75
2023/03/12 05:19:43;;;;;;;4.75;2.80;;;;;;;-0.42;73.59;95911.06;5051664;28;20665;-74
2023/03/12 05:22:10;;;;;;;6.47;2.65;;;;;;;-0.41;73.57;95906.53;5050464;28;20041;-75
2023/03/12 05:24:36;;;;;;;5.47;2.70;;;;;;;-0.46;73.65;95915.34;5051292;28;20052;-75
2023/03/12 05:27:03;;;;;;;4.93;2.70;;;;;;;-0.42;73.65;95908.38;5050766;28;20053;-73
2023/03/12 05:29:34;;;;;;;6.28;2.85;;;;;;;-0.40;73.82;95914.31;5044837;28;20049;-74
2023/03/12 05:32:01;;;;;;;6.30;3.65;;;;;;;-0.38;74.12;95908.69;5069671;28;20048;-75
2023/03/12 05:34:30;;;;;;;9.98;3.80;;;;;;;-0.36;74.22;95915.41;5043799;28;20551;-73
2023/03/12 05:36:57;;;;;;;5.43;2.85;;;;;;;-0.40;74.61;95903.59;5031045;28;20042;-75
2023/03/12 05:39:23;;;;;;;5.57;3.10;;;;;;;-0.37;74.65;95905.75;5031285;28;20037;-76
2023/03/12 05:41:52;;;;;;;5.72;3.22;;;;;;;-0.34;74.78;95901.75;5033875;28;20049;-75
2023/03/12 05:44:19;;;;;;;4.68;2.92;;;;;;;-0.36;75.07;95904.69;5030398;28;20045;-75
2023/03/12 05:46:46;;;;;;;6.95;3.35;;;;;;;-0.34;74.81;95904.44;5030412;28;20053;-75
2023/03/12 05:49:14;;;;;;;5.18;3.03;;;;;;;-0.34;74.89;95913.25;5030333;28;20041;-75
2023/03/12 05:51:43;;;;;;;6.13;3.10;;;;;;;-0.30;75.10;95909.00;5030739;28;20146;-75
2023/03/12 05:54:09;;;;;;;5.50;3.15;;;;;;;-0.28;75.23;95917.56;5038012;28;20068;-74
2023/03/12 05:56:36;;;;;;;6.82;3.25;;;;;;;-0.17;74.90;95922.97;5050682;28;20095;-74
2023/03/12 05:59:03;;;;;;;5.88;3.13;;;;;;;-0.23;75.78;95932.03;5050102;28;20044;-75
2023/03/12 06:01:33;;;;;;;5.80;3.17;;;;;;;-0.21;75.75;95929.91;5048858;28;20522;-75
2023/03/12 06:03:59;;;;;;;4.97;3.08;;;;;;;-0.15;75.93;95931.56;5050460;28;20045;-76
2023/03/12 06:06:26;;;;;;;7.00;3.60;;;;;;;-0.15;75.71;95931.56;5048889;28;20052;-76
2023/03/12 06:08:54;;;;;;;5.05;3.17;;;;;;;-0.13;76.13;95919.53;5046028;28;20052;-75
2023/03/12 06:11:20;;;;;;;5.45;3.10;;;;;;;-0.01;75.74;95924.66;5049983;28;20045;-74
2023/03/12 06:13:47;;;;;;;5.63;3.40;;;;;;;-0.01;75.43;95913.94;5050251;28;20049;-74
2023/03/12 06:16:17;;;;;;;5.50;3.35;;;;;;;-0.02;75.70;95910.47;5050094;28;20053;-74
2023/03/12 06:18:44;;;;;;;7.25;3.25;;;;;;;0.06;75.66;95908.38;5042333;28;20041;-75
2023/03/12 06:21:12;;;;;;;6.97;3.35;;;;;;;0.14;75.52;95908.66;5029990;28;20061;-75
2023/03/12 06:23:39;;;;;;;8.38;4.25;;;;;;;0.20;75.53;95915.63;5030434;28;20519;-75
2023/03/12 06:26:08;;;;;;;5.82;3.67;;;;;;;0.25;75.80;95921.00;5029854;28;20053;-74
2023/03/12 06:28:35;;;;;;;6.32;3.80;;;;;;;0.43;75.50;95916.25;5029750;28;20520;-75
2023/03/12 06:31:02;;;;;;;7.38;3.78;;;;;;;0.55;74.95;95924.84;5041428;28;20045;-76
2023/03/12 06:33:29;;;;;;;7.68;3.60;;;;;;;0.66;74.58;95917.63;5038598;28;20092;-75
2023/03/12 06:35:56;;;;;;;7.45;4.00;;;;;;;0.74;74.22;95912.56;5030405;28;20056;-73
2023/03/12 06:38:23;;;;;;;6.88;4.20;;;;;;;0.76;74.21;95917.66;5029901;28;20041;-73
2023/03/12 06:40:54;;;;;;;7.00;4.30;;;;;;;0.85;74.22;95915.25;5045867;28;20136;-73
2023/03/12 06:43:22;;;;;;;8.80;4.40;;;;;;;0.93;74.09;95914.69;5037090;28;20547;-74
2023/03/12 06:45:49;;;;;;;7.45;4.20;;;;;;;1.03;73.94;95925.44;5029828;28;20057;-74
2023/03/12 06:48:15;;;;;;;10.70;5.07;;;;;;;1.00;74.50;95934.03;5029455;28;20050;-73
2023/03/12 06:50:42;;;;;;;10.95;5.75;;;;;;;1.07;74.78;95926.50;5030130;28;20140;-73
2023/03/12 06:53:08;;;;;;;10.13;5.72;;;;;;;1.07;74.70;95933.75;5029744;28;20502;-73
2023/03/12 06:55:35;;;;;;;8.45;4.97;;;;;;;1.35;74.63;95932.41;5029963;28;20045;-73
2023/03/12 06:58:02;;;;;;;8.07;5.30;;;;;;;1.50;74.37;95935.06;5029324;28;20046;-73
2023/03/12 07:00:30;;;;;;;11.18;5.53;;;;;;;1.65;74.00;95937.72;5043550;28;20049;-73
2023/03/12 07:02:57;;;;;;;9.05;5.32;;;;;;;1.75;73.82;95948.44;5061256;28;20049;-73
2023/03/12 07:05:23;;;;;;;10.93;5.57;;;;;;;1.80;73.01;95945.75;5029214;28;20691;-73
2023/03/12 07:07:50;;;;;;;10.32;5.75;;;;;;;1.86;73.39;95948.44;5029706;28;20057;-73
2023/03/12 07:10:17;;;;;;;8.77;5.38;;;;;;;1.96;73.20;95956.47;5028984;28;20057;-73
2023/03/12 07:12:44;;;;;;;8.35;5.45;;;;;;;2.06;73.17;95954.56;5029719;28;20051;-73
2023/03/12 07:15:11;;;;;;;9.80;5.90;;;;;;;2.12;73.10;95955.34;5029378;28;20053;-73
2023/03/12 07:17:39;;;;;;;9.55;5.70;;;;;;;2.14;73.22;95963.94;5029515;28;20046;-73
2023/03/12 07:20:07;;;;;;;11.27;5.70;;;;;;;1.92;74.38;95971.50;5041241;28;20099;-74
2023/03/12 07:22:33;;;;;;;9.15;5.55;;;;;;;1.96;74.77;95969.88;5029809;28;20468;-73
2023/03/12 07:25:00;;;;;;;9.30;5.45;;;;;;;2.21;73.95;95966.31;5029754;28;20459;-74
2023/03/12 07:27:26;;;;;;;9.43;5.70;;;;;;;2.38;73.57;95966.00;5029187;28;20432;-74
2023/03/12 07:29:53;;;;;;;11.77;5.55;;;;;;;2.28;73.74;95967.63;5031615;28;20068;-73
2023/03/12 07:32:19;;;;;;;7.97;5.55;;;;;;;2.51;73.67;95954.66;5048726;28;20401;-76
2023/03/12 07:34:47;;;;;;;11.88;5.32;;;;;;;2.52;73.90;95948.19;5049813;28;20041;-73
2023/03/12 07:37:14;;;;;;;9.50;6.13;;;;;;;2.63;73.64;95947.06;5043221;28;20052;-73
2023/03/12 07:39:40;;;;;;;8.48;5.57;;;;;;;2.68;73.48;95949.72;5030631;28;20052;-73
2023/03/12 07:42:07;;;;;;;9.85;5.75;;;;;;;2.88;73.16;95938.03;5032763;28;20057;-74
2023/03/12 07:44:35;;;;;;;10.38;5.65;;;;;;;2.85;72.77;95939.41;5033407;28;20052;-73
2023/03/12 07:47:02;;;;;;;11.27;5.65;;;;;;;2.95;73.10;95932.34;5032855;28;20531;-73
2023/03/12 07:49:28;;;;;;;11.90;5.30;;;;;;;3.09;72.20;95933.34;5033340;28;20049;-74
2023/03/12 07:51:56;;;;;;;8.35;5.30;;;;;;;3.22;72.25;95943.44;5033315;28;20417;-73
2023/03/12 07:54:27;;;;;;;9.63;5.35;;;;;;;3.11;73.20;95937.34;5033044;28;20052;-74
2023/03/12 07:56:54;;;;;;;10.30;5.65;;;;;;;3.29;72.72;95945.81;5033334;28;20045;-74
2023/03/12 07:59:22;;;;;;;7.88;4.70;;;;;;;3.11;74.61;95948.09;5032968;28;20056;-73
2023/03/12 08:01:49;;;;;;;10.13;5.68;;;;;;;3.51;74.94;95942.69;5068952;28;20037;-75
2023/03/12 08:04:16;;;;;;;8.98;5.18;;;;;;;3.46;75.01;95948.09;5072521;28;20455;-74
2023/03/12 08:06:42;;;;;;;8.50;5.00;;;;;;;4.00;73.42;95939.75;5060847;28;20521;-74
2023/03/12 08:09:11;;;;;;;8.68;4.45;;;;;;;3.76;72.46;95942.44;5032221;28;20054;-73
2023/03/12 08:11:37;;;;;;;8.65;3.22;;;;;;;3.90;70.87;95943.34;5032612;28;20049;-73
2023/03/12 08:14:04;;;;;;;9.23;3.83;;;;;;;4.02;71.15;95944.84;5032466;28;20053;-73
2023/03/12 08:16:31;;;;;;;6.07;3.42;;;;;;;3.52;72.24;95947.78;5032625;28;20068;-74
2023/03/12 08:18:58;;;;;;;9.23;4.20;;;;;;;3.63;72.56;95959.25;5042502;28;20049;-74
2023/03/12 08:21:25;;;;;;;7.45;4.03;;;;;;;3.51;72.47;95948.06;5051993;28;20049;-73
2023/03/12 08:23:51;;;;;;;10.43;5.72;;;;;;;3.34;73.95;95957.34;5052297;28;20048;-73
2023/03/12 08:26:19;;;;;;;10.10;4.88;;;;;;;3.36;74.44;95960.56;5051708;28;20135;-73
2023/03/12 08:28:45;;;;;;;10.13;4.60;;;;;;;3.18;75.63;95960.41;5051992;28;20396;-74
2023/03/12 08:31:12;;;;;;;10.07;4.22;;;;;;;3.55;74.67;95968.75;5057278;28;20135;-74
2023/03/12 08:33:42;;;;;;;7.40;4.22;;;;;;;3.71;74.18;95961.34;5071944;28;20499;-73
2023/03/12 08:36:08;;;;;;;11.02;5.20;;;;;;;3.84;74.14;95960.66;5031910;28;20409;-74
2023/03/12 08:38:35;;;;;;;8.32;4.82;;;;;;;4.14;73.99;95964.13;5032365;28;20049;-74
2023/03/12 08:41:02;;;;;;;7.15;4.13;;;;;;;4.25;72.49;95976.41;5031790;28;20041;-73
2023/03/12 08:43:30;;;;;;;6.30;4.20;;;;;;;4.20;71.74;95963.00;5032296;28;20397;-75
2023/03/12 08:45:57;;;;;;;5.38;3.55;;;;;;;4.58;70.71;95969.28;5032056;28;20493;-73
2023/03/12 08:48:24;;;;;;;8.65;4.10;;;;;;;4.56;70.52;95970.66;5031855;28;20053;-73
2023/03/12 08:50:51;;;;;;;7.47;3.70;;;;;;;4.53;70.18;95971.22;5031820;28;20057;-73
2023/03/12 08:53:17;;;;;;;6.75;4.00;;;;;;;4.24;71.25;95974.00;5031337;28;20049;-73
2023/03/12 08:55:45;;;;;;;7.85;3.78;;;;;;;4.34;69.73;95958.53;5032387;28;20045;-74
2023/03/12 08:58:11;;;;;;;5.95;3.47;;;;;;;4.39;70.17;95958.47;5031906;28;20041;-73
2023/03/12 09:00:39;;;;;;;6.60;3.97;;;;;;;4.62;69.39;95958.72;5049025;28;20052;-73
2023/03/12 09:03:06;;;;;;;5.57;3.53;;;;;;;4.84;69.14;95958.94;5072598;28;20048;-74
2023/03/12 09:05:33;;;;;;;5.70;3.67;;;;;;;4.64;69.26;95961.91;5072517;28;20053;-73
2023/03/12 09:07:59;;;;;;;6.88;3.42;;;;;;;4.51;70.31;95952.66;5032908;28;20050;-73
2023/03/12 09:10:26;;;;;;;5.85;3.42;;;;;;;4.41;70.40;95958.16;5032975;28;20394;-74
2023/03/12 09:12:53;;;;;;;8.32;3.00;;;;;;;4.72;69.55;95959.38;5035297;28;20045;-73
2023/03/12 09:15:19;;;;;;;6.72;3.10;;;;;;;4.56;67.15;95967.97;5036222;28;20052;-73
2023/03/12 09:17:47;;;;;;;7.45;3.22;;;;;;;4.45;68.81;95965.41;5033629;28;20080;-75
2023/03/12 09:20:14;;;;;;;6.65;3.15;;;;;;;4.20;68.49;95963.00;5032129;28;20053;-74
2023/03/12 09:22:41;;;;;;;5.68;2.42;;;;;;;4.44;68.71;95963.78;5043614;28;20076;-73
2023/03/12 09:25:09;;;;;;;6.82;3.08;;;;;;;4.69;68.22;95959.16;5054842;28;20048;-73
2023/03/12 09:27:37;;;;;;;6.72;3.30;;;;;;;4.59;68.15;95964.69;5051325;28;20099;-74
2023/03/12 09:30:05;;;;;;;4.57;2.55;;;;;;;4.84;66.93;95967.03;5054467;28;20045;-74
2023/03/12 09:32:31;;;;;;;4.55;2.55;;;;;;;4.92;65.62;95963.72;5062113;28;20049;-73
2023/03/12 09:34:59;;;;;;;6.75;2.05;;;;;;;4.92;64.69;95969.09;5048028;28;20518;-74
2023/03/12 09:37:26;;;;;;;527.10;204.13;;;;;;;4.82;62.34;95963.84;5034848;28;20137;-75
2023/03/12 09:39:53;;;;;;;11.35;4.60;;;;;;;4.52;64.16;95969.63;5033314;28;20046;-74
2023/03/12 09:42:25;;;;;;;5.80;2.38;;;;;;;4.67;63.60;95972.94;5043872;28;20052;-73
2023/03/12 09:44:54;;;;;;;5.60;2.50;;;;;;;4.84;63.09;95967.03;5061782;28;20044;-76
2023/03/12 09:47:26;;;;;;;7.68;2.50;;;;;;;4.63;65.27;95981.88;5054720;28;20051;-73
2023/03/12 09:49:58;;;;;;;4.17;2.10;;;;;;;4.72;64.26;95967.47;5049371;28;20191;-73
2023/03/12 09:52:30;;;;;;;4.45;1.88;;;;;;;4.61;64.00;95965.22;5049485;28;20049;-81
2023/03/12 09:55:05;;;;;;;5.47;2.35;;;;;;;4.86;65.09;95962.19;5050185;28;20060;-79
2023/03/12 09:57:31;;;;;;;7.43;2.92;;;;;;;5.14;64.98;95970.41;5048590;28;20519;-75
2023/03/12 09:59:58;;;;;;;4.82;2.20;;;;;;;5.15;66.07;95982.81;5049866;28;20077;-74
2023/03/12 10:02:47;;;;;;;5.45;3.10;;;;;;;4.78;68.79;95970.91;5047461;28;20057;-75
2023/03/12 10:05:23;;;;;;;11.15;2.97;;;;;;;4.47;70.09;95967.78;5044383;28;20061;-74
2023/03/12 10:07:59;;;;;;;5.70;2.90;;;;;;;4.64;70.00;95964.63;5027910;28;20064;-75
2023/03/12 10:10:37;;;;;;;8.52;3.20;;;;;;;4.78;70.24;95957.41;5037001;28;20068;-75
2023/03/12 10:13:32;;;;;;;4.93;2.90;;;;;;;5.17;70.68;95953.66;5046349;28;20049;-75
2023/03/12 10:16:10;;;;;;;9.73;3.08;;;;;;;5.27;71.25;95958.88;5044437;28;20404;-74
2023/03/12 10:18:54;;;;;;;8.32;2.97;;;;;;;5.26;73.49;95962.66;5041109;28;20045;-73
2023/03/12 10:21:29;;;;;;;5.97;3.13;;;;;;;5.66;72.33;95955.81;5034048;28;20049;-73
2023/03/12 10:24:12;;;;;;;5.55;3.00;;;;;;;5.45;72.13;95960.75;5034817;28;20590;-73
2023/03/12 10:26:40;;;;;;;8.13;3.28;;;;;;;4.88;74.62;95959.19;5033545;28;20136;-74
2023/03/12 10:29:15;;;;;;;5.65;3.13;;;;;;;4.67;75.76;95961.34;5033165;28;20049;-74
2023/03/12 10:31:51;;;;;;;5.25;3.30;;;;;;;5.04;74.86;95971.38;5067324;28;20051;-73
2023/03/12 10:34:24;;;;;;;5.32;3.13;;;;;;;4.74;75.59;95961.78;5044221;28;20049;-74
2023/03/12 10:36:50;;;;;;;8.20;3.30;;;;;;;4.68;76.59;95968.34;5028070;28;20053;-72
2023/03/12 10:39:20;;;;;;;8.95;3.40;;;;;;;4.47;76.95;95983.97;5027195;28;20048;-73
2023/03/12 10:41:48;;;;;;;5.13;3.00;;;;;;;4.18;77.79;95981.34;5027206;28;20057;-73
2023/03/12 10:44:19;;;;;;;6.57;3.53;;;;;;;3.88;79.75;95983.25;5038380;28;20059;-72
2023/03/12 10:47:06;;;;;;;4.68;2.45;;;;;;;3.93;81.48;95983.22;5047109;28;20037;-73
2023/03/12 10:49:37;;;;;;;5.85;3.28;;;;;;;4.13;81.11;95981.41;5046902;28;20393;-77
2023/03/12 10:52:06;;;;;;;6.25;3.70;;;;;;;4.36;79.83;95979.78;5046105;28;20060;-72
2023/03/12 10:54:39;;;;;;;6.05;2.90;;;;;;;4.62;78.63;95974.91;5047077;28;20041;-72
2023/03/12 10:57:07;;;;;;;7.07;3.25;;;;;;;4.69;77.55;95978.84;5029674;28;20056;-72
2023/03/12 10:59:35;;;;;;;6.97;3.30;;;;;;;4.72;78.06;95986.34;5047192;28;20057;-75
2023/03/12 11:02:03;;;;;;;4.63;3.05;;;;;;;4.70;78.38;95987.75;5052149;28;20128;-74
2023/03/12 11:04:32;;;;;;;4.38;2.50;;;;;;;4.13;81.16;95986.78;5049532;28;20171;-74
2023/03/12 11:07:19;;;;;;;5.60;3.00;;;;;;;4.16;82.83;95995.09;5046717;28;20060;-72
2023/03/12 11:10:04;;;;;;;6.22;3.10;;;;;;;4.16;83.51;95988.91;5045258;28;20056;-73
2023/03/12 11:12:31;;;;;;;4.45;2.90;;;;;;;3.93;86.92;95991.28;5046167;28;20504;-72
2023/03/12 11:14:58;;;;;;;7.43;4.15;;;;;;;3.83;89.71;95980.59;5047995;28;20058;-73
2023/03/12 11:17:26;;;;;;;8.18;3.92;;;;;;;3.84;91.56;95987.59;5050620;28;20059;-73
2023/03/12 11:19:53;;;;;;;4.65;2.75;;;;;;;3.81;91.23;95988.19;5050138;28;20053;-73
2023/03/12 11:22:32;;;;;;;7.43;4.25;;;;;;;3.78;93.93;95988.75;5050258;28;20045;-73
2023/03/12 11:25:02;;;;;;;6.18;3.83;;;;;;;3.91;95.02;95993.47;5052319;28;20575;-75
2023/03/12 11:27:40;;;;;;;8.82;3.78;;;;;;;3.83;96.86;95991.38;5055003;28;20060;-74
2023/03/12 11:30:17;;;;;;;5.63;3.85;;;;;;;3.86;98.05;95982.75;5047517;28;20045;-77
2023/03/12 11:32:46;;;;;;;4.97;2.92;;;;;;;3.76;98.47;95985.53;5051680;28;20056;-72
2023/03/12 11:35:15;;;;;;;6.75;3.67;;;;;;;3.66;100.00;95983.72;5049180;28;20045;-74
2023/03/12 11:37:57;;;;;;;4.70;3.35;;;;;;;3.83;100.00;95977.13;5051388;28;20053;-74
2023/03/12 11:40:44;;;;;;;5.57;3.30;;;;;;;3.95;99.74;95969.44;5050184;28;20495;-74
2023/03/12 11:43:26;;;;;;;5.20;3.28;;;;;;;3.98;99.13;95970.78;5049837;28;20058;-73